Terminal Aerodrome Forecast
Issued by NWS

Home | Current Version | Previous Version | Text Only | Print | Product List | Glossary On
Versions: 1 2 3 4 5 6 7 8 9 10 11 12 13 14 15 16 17 18 19
000
FTUS41 KGYX 261124
TAFRKD
TAF
KRKD 261124Z 2612/2712 VRB04KT P6SM OVC150
     FM261800 04009KT 6SM -RASN OVC040
     FM262100 05016G28KT 1/2SM SN FG OVC004
     FM270600 03020G30KT 1 1/2SM -SN BLSN BR OVC007
     FM271000 35015G25KT P6SM -SHSN BKN020
      AMD LTD TO VIS CLD AND WIND=

USA.gov is the U.S. government's official web portal to all federal, state and local government web resources and services.